sensor_id;sensor_type;location;lat;lon;timestamp;temperature;humidity
1405;DHT22;697;51.114;6.542;2024-02-21T00:01:26;10.60;99.90
1405;DHT22;697;51.114;6.542;2024-02-21T00:03:53;10.60;99.90
1405;DHT22;697;51.114;6.542;2024-02-21T00:06:20;10.60;99.90
1405;DHT22;697;51.114;6.542;2024-02-21T00:08:46;10.60;99.90
1405;DHT22;697;51.114;6.542;2024-02-21T00:11:14;10.60;99.90
1405;DHT22;697;51.114;6.542;2024-02-21T00:13:41;10.60;99.90
1405;DHT22;697;51.114;6.542;2024-02-21T00:16:08;10.60;99.90
1405;DHT22;697;51.114;6.542;2024-02-21T00:18:36;10.60;99.90
1405;DHT22;697;51.114;6.542;2024-02-21T00:21:03;10.60;99.90
1405;DHT22;697;51.114;6.542;2024-02-21T00:23:30;10.50;99.90
1405;DHT22;697;51.114;6.542;2024-02-21T00:25:56;10.60;99.90
1405;DHT22;697;51.114;6.542;2024-02-21T00:28:24;10.50;99.90
1405;DHT22;697;51.114;6.542;2024-02-21T00:30:51;10.60;99.90
1405;DHT22;697;51.114;6.542;2024-02-21T00:33:18;10.60;99.90
1405;DHT22;697;51.114;6.542;2024-02-21T00:35:45;10.50;99.90
1405;DHT22;697;51.114;6.542;2024-02-21T00:38:12;10.50;99.90
1405;DHT22;697;51.114;6.542;2024-02-21T00:40:39;10.50;99.90
1405;DHT22;697;51.114;6.542;2024-02-21T00:43:06;10.50;99.90
1405;DHT22;697;51.114;6.542;2024-02-21T00:45:34;10.50;99.90
1405;DHT22;697;51.114;6.542;2024-02-21T00:48:00;10.50;99.90
1405;DHT22;697;51.114;6.542;2024-02-21T00:50:27;10.40;99.90
1405;DHT22;697;51.114;6.542;2024-02-21T00:52:54;10.40;99.90
1405;DHT22;697;51.114;6.542;2024-02-21T00:55:21;10.40;99.90
1405;DHT22;697;51.114;6.542;2024-02-21T00:57:47;10.40;99.90
1405;DHT22;697;51.114;6.542;2024-02-21T01:00:15;10.40;99.90
1405;DHT22;697;51.114;6.542;2024-02-21T01:02:43;10.40;99.90
1405;DHT22;697;51.114;6.542;2024-02-21T01:05:10;10.50;99.90
1405;DHT22;697;51.114;6.542;2024-02-21T01:07:37;10.50;99.90
1405;DHT22;697;51.114;6.542;2024-02-21T01:10:04;10.50;99.90
1405;DHT22;697;51.114;6.542;2024-02-21T01:12:31;10.60;99.90
1405;DHT22;697;51.114;6.542;2024-02-21T01:14:58;10.60;99.90
1405;DHT22;697;51.114;6.542;2024-02-21T01:17:25;10.60;99.90
1405;DHT22;697;51.114;6.542;2024-02-21T01:19:53;10.60;99.90
1405;DHT22;697;51.114;6.542;2024-02-21T01:22:20;10.60;99.90
1405;DHT22;697;51.114;6.542;2024-02-21T01:24:46;10.70;99.90
1405;DHT22;697;51.114;6.542;2024-02-21T01:27:13;10.70;99.90
1405;DHT22;697;51.114;6.542;2024-02-21T01:29:40;10.70;99.90
1405;DHT22;697;51.114;6.542;2024-02-21T01:32:07;10.70;99.90
1405;DHT22;697;51.114;6.542;2024-02-21T01:34:34;10.80;99.90
1405;DHT22;697;51.114;6.542;2024-02-21T01:37:02;10.80;99.90
1405;DHT22;697;51.114;6.542;2024-02-21T01:39:30;10.80;99.90
1405;DHT22;697;51.114;6.542;2024-02-21T01:41:56;10.90;99.90
1405;DHT22;697;51.114;6.542;2024-02-21T01:44:24;10.90;99.90
1405;DHT22;697;51.114;6.542;2024-02-21T01:46:51;10.90;99.90
1405;DHT22;697;51.114;6.542;2024-02-21T01:49:18;10.90;99.90
1405;DHT22;697;51.114;6.542;2024-02-21T01:51:45;10.90;99.90
1405;DHT22;697;51.114;6.542;2024-02-21T01:54:14;10.80;99.90
1405;DHT22;697;51.114;6.542;2024-02-21T01:56:42;10.90;99.90
1405;DHT22;697;51.114;6.542;2024-02-21T01:59:09;10.90;99.90
1405;DHT22;697;51.114;6.542;2024-02-21T02:01:36;10.80;99.90
1405;DHT22;697;51.114;6.542;2024-02-21T02:04:04;10.80;99.90
1405;DHT22;697;51.114;6.542;2024-02-21T02:06:31;10.80;99.90
1405;DHT22;697;51.114;6.542;2024-02-21T02:08:58;10.80;99.90
1405;DHT22;697;51.114;6.542;2024-02-21T02:11:26;10.80;99.90
1405;DHT22;697;51.114;6.542;2024-02-21T02:13:53;10.70;99.90
1405;DHT22;697;51.114;6.542;2024-02-21T02:16:20;10.70;99.90
1405;DHT22;697;51.114;6.542;2024-02-21T02:18:47;10.70;99.90
1405;DHT22;697;51.114;6.542;2024-02-21T02:21:28;10.70;99.90
1405;DHT22;697;51.114;6.542;2024-02-21T02:23:57;10.70;99.90
1405;DHT22;697;51.114;6.542;2024-02-21T02:26:23;10.70;99.90
1405;DHT22;697;51.114;6.542;2024-02-21T02:28:50;10.70;99.90
1405;DHT22;697;51.114;6.542;2024-02-21T02:31:17;10.70;99.90
1405;DHT22;697;51.114;6.542;2024-02-21T02:33:44;10.70;99.90
1405;DHT22;697;51.114;6.542;2024-02-21T02:36:11;10.70;99.90
1405;DHT22;697;51.114;6.542;2024-02-21T02:38:38;10.70;99.90
1405;DHT22;697;51.114;6.542;2024-02-21T02:41:06;10.70;99.90
1405;DHT22;697;51.114;6.542;2024-02-21T02:43:32;10.70;99.90
1405;DHT22;697;51.114;6.542;2024-02-21T02:45:59;10.70;99.90
1405;DHT22;697;51.114;6.542;2024-02-21T02:48:26;10.70;99.90
1405;DHT22;697;51.114;6.542;2024-02-21T02:50:53;10.70;99.90
1405;DHT22;697;51.114;6.542;2024-02-21T02:53:19;10.70;99.90
1405;DHT22;697;51.114;6.542;2024-02-21T02:55:46;10.70;99.90
1405;DHT22;697;51.114;6.542;2024-02-21T02:58:14;10.70;99.90
1405;DHT22;697;51.114;6.542;2024-02-21T03:00:41;10.70;99.90
1405;DHT22;697;51.114;6.542;2024-02-21T03:03:08;10.70;99.90
1405;DHT22;697;51.114;6.542;2024-02-21T03:05:35;10.70;99.90
1405;DHT22;697;51.114;6.542;2024-02-21T03:08:02;10.70;99.90
1405;DHT22;697;51.114;6.542;2024-02-21T03:10:32;10.60;99.90
1405;DHT22;697;51.114;6.542;2024-02-21T03:12:59;10.60;99.90
1405;DHT22;697;51.114;6.542;2024-02-21T03:15:27;10.60;99.90
1405;DHT22;697;51.114;6.542;2024-02-21T03:17:54;10.60;99.90
1405;DHT22;697;51.114;6.542;2024-02-21T03:20:21;10.60;99.90
1405;DHT22;697;51.114;6.542;2024-02-21T03:22:47;10.60;99.90
1405;DHT22;697;51.114;6.542;2024-02-21T03:25:14;10.60;99.90
1405;DHT22;697;51.114;6.542;2024-02-21T03:27:41;10.60;99.90
1405;DHT22;697;51.114;6.542;2024-02-21T03:30:09;10.50;99.90
1405;DHT22;697;51.114;6.542;2024-02-21T03:32:37;10.50;99.90
1405;DHT22;697;51.114;6.542;2024-02-21T03:35:05;10.50;99.90
1405;DHT22;697;51.114;6.542;2024-02-21T03:37:32;10.60;99.90
1405;DHT22;697;51.114;6.542;2024-02-21T03:39:58;10.50;99.90
1405;DHT22;697;51.114;6.542;2024-02-21T03:42:25;10.50;99.90
1405;DHT22;697;51.114;6.542;2024-02-21T03:44:55;10.50;99.90
1405;DHT22;697;51.114;6.542;2024-02-21T03:47:21;10.40;99.90
1405;DHT22;697;51.114;6.542;2024-02-21T03:49:50;10.40;99.90
1405;DHT22;697;51.114;6.542;2024-02-21T03:52:16;10.40;99.90
1405;DHT22;697;51.114;6.542;2024-02-21T03:54:43;10.40;99.90
1405;DHT22;697;51.114;6.542;2024-02-21T03:57:10;10.40;99.90
1405;DHT22;697;51.114;6.542;2024-02-21T03:59:37;10.40;99.90
1405;DHT22;697;51.114;6.542;2024-02-21T04:02:05;10.40;99.90
1405;DHT22;697;51.114;6.542;2024-02-21T04:04:34;10.40;99.90
1405;DHT22;697;51.114;6.542;2024-02-21T04:07:04;10.40;99.90
1405;DHT22;697;51.114;6.542;2024-02-21T04:09:32;10.40;99.90
1405;DHT22;697;51.114;6.542;2024-02-21T04:11:59;10.40;99.90
1405;DHT22;697;51.114;6.542;2024-02-21T04:14:26;10.40;99.90
1405;DHT22;697;51.114;6.542;2024-02-21T04:16:53;10.40;99.90
1405;DHT22;697;51.114;6.542;2024-02-21T04:19:20;10.40;99.90
1405;DHT22;697;51.114;6.542;2024-02-21T04:21:47;10.40;99.90
1405;DHT22;697;51.114;6.542;2024-02-21T04:24:15;10.40;99.90
1405;DHT22;697;51.114;6.542;2024-02-21T04:26:42;10.50;99.90
1405;DHT22;697;51.114;6.542;2024-02-21T04:29:09;10.50;99.90
1405;DHT22;697;51.114;6.542;2024-02-21T04:31:36;10.50;99.90
1405;DHT22;697;51.114;6.542;2024-02-21T04:34:03;10.50;99.90
1405;DHT22;697;51.114;6.542;2024-02-21T04:36:29;10.50;99.90
1405;DHT22;697;51.114;6.542;2024-02-21T04:38:56;10.50;99.90
1405;DHT22;697;51.114;6.542;2024-02-21T04:41:24;10.50;99.90
1405;DHT22;697;51.114;6.542;2024-02-21T04:43:51;10.50;99.90
1405;DHT22;697;51.114;6.542;2024-02-21T04:46:18;10.50;99.90
1405;DHT22;697;51.114;6.542;2024-02-21T04:48:45;10.50;99.90
1405;DHT22;697;51.114;6.542;2024-02-21T04:51:12;10.50;99.90
1405;DHT22;697;51.114;6.542;2024-02-21T04:53:39;10.50;99.90
1405;DHT22;697;51.114;6.542;2024-02-21T04:56:06;10.50;99.90
1405;DHT22;697;51.114;6.542;2024-02-21T04:58:37;10.60;99.90
1405;DHT22;697;51.114;6.542;2024-02-21T05:01:04;10.60;99.90
1405;DHT22;697;51.114;6.542;2024-02-21T05:03:31;10.60;99.90
1405;DHT22;697;51.114;6.542;2024-02-21T05:05:59;10.60;99.90
1405;DHT22;697;51.114;6.542;2024-02-21T05:08:26;10.60;99.90
1405;DHT22;697;51.114;6.542;2024-02-21T05:10:53;10.60;99.90
1405;DHT22;697;51.114;6.542;2024-02-21T05:13:20;10.60;99.90
1405;DHT22;697;51.114;6.542;2024-02-21T05:15:48;10.60;99.90
1405;DHT22;697;51.114;6.542;2024-02-21T05:18:15;10.60;99.90
1405;DHT22;697;51.114;6.542;2024-02-21T05:20:42;10.60;99.90
1405;DHT22;697;51.114;6.542;2024-02-21T05:23:08;10.60;99.90
1405;DHT22;697;51.114;6.542;2024-02-21T05:25:35;10.60;99.90
1405;DHT22;697;51.114;6.542;2024-02-21T05:28:03;10.60;99.90
1405;DHT22;697;51.114;6.542;2024-02-21T05:30:31;10.60;99.90
1405;DHT22;697;51.114;6.542;2024-02-21T05:33:04;10.60;99.90
1405;DHT22;697;51.114;6.542;2024-02-21T05:35:32;10.60;99.90
1405;DHT22;697;51.114;6.542;2024-02-21T05:37:58;10.60;99.90
1405;DHT22;697;51.114;6.542;2024-02-21T05:40:26;10.60;99.90
1405;DHT22;697;51.114;6.542;2024-02-21T05:42:53;10.60;99.90
1405;DHT22;697;51.114;6.542;2024-02-21T05:45:19;10.60;99.90
1405;DHT22;697;51.114;6.542;2024-02-21T05:47:46;10.60;99.90
1405;DHT22;697;51.114;6.542;2024-02-21T05:50:14;10.60;99.90
1405;DHT22;697;51.114;6.542;2024-02-21T05:52:41;10.60;99.90
1405;DHT22;697;51.114;6.542;2024-02-21T05:55:08;10.60;99.90
1405;DHT22;697;51.114;6.542;2024-02-21T05:57:35;10.60;99.90
1405;DHT22;697;51.114;6.542;2024-02-21T06:00:04;10.70;99.90
1405;DHT22;697;51.114;6.542;2024-02-21T06:02:31;10.60;99.90
1405;DHT22;697;51.114;6.542;2024-02-21T06:04:58;10.60;99.90
1405;DHT22;697;51.114;6.542;2024-02-21T06:07:26;10.60;99.90
1405;DHT22;697;51.114;6.542;2024-02-21T06:09:53;10.60;99.90
1405;DHT22;697;51.114;6.542;2024-02-21T06:12:20;10.70;99.90
1405;DHT22;697;51.114;6.542;2024-02-21T06:14:47;10.70;99.90
1405;DHT22;697;51.114;6.542;2024-02-21T06:17:14;10.70;99.90
1405;DHT22;697;51.114;6.542;2024-02-21T06:19:42;10.70;99.90
1405;DHT22;697;51.114;6.542;2024-02-21T06:22:09;10.60;99.90
1405;DHT22;697;51.114;6.542;2024-02-21T06:24:37;10.70;99.90
1405;DHT22;697;51.114;6.542;2024-02-21T06:27:04;10.70;99.90
1405;DHT22;697;51.114;6.542;2024-02-21T06:29:32;10.70;99.90
1405;DHT22;697;51.114;6.542;2024-02-21T06:31:59;10.70;99.90
1405;DHT22;697;51.114;6.542;2024-02-21T06:34:26;10.70;99.90
1405;DHT22;697;51.114;6.542;2024-02-21T06:36:53;10.70;99.90
1405;DHT22;697;51.114;6.542;2024-02-21T06:39:20;10.70;99.90
1405;DHT22;697;51.114;6.542;2024-02-21T06:41:50;10.60;99.90
1405;DHT22;697;51.114;6.542;2024-02-21T06:44:18;10.60;99.90
1405;DHT22;697;51.114;6.542;2024-02-21T06:46:45;10.60;99.90
1405;DHT22;697;51.114;6.542;2024-02-21T06:49:12;10.60;99.90
1405;DHT22;697;51.114;6.542;2024-02-21T06:51:41;10.60;99.90
1405;DHT22;697;51.114;6.542;2024-02-21T06:54:08;10.60;99.90
1405;DHT22;697;51.114;6.542;2024-02-21T06:56:35;10.60;99.90
1405;DHT22;697;51.114;6.542;2024-02-21T06:59:04;10.60;99.90
1405;DHT22;697;51.114;6.542;2024-02-21T07:01:30;10.50;99.90
1405;DHT22;697;51.114;6.542;2024-02-21T07:03:57;10.50;99.90
1405;DHT22;697;51.114;6.542;2024-02-21T07:06:24;10.60;99.90
1405;DHT22;697;51.114;6.542;2024-02-21T07:08:51;10.50;99.90
1405;DHT22;697;51.114;6.542;2024-02-21T07:11:18;10.50;99.90
1405;DHT22;697;51.114;6.542;2024-02-21T07:13:45;10.50;99.90
1405;DHT22;697;51.114;6.542;2024-02-21T07:16:13;10.60;99.90
1405;DHT22;697;51.114;6.542;2024-02-21T07:18:39;10.60;99.90
1405;DHT22;697;51.114;6.542;2024-02-21T07:21:06;10.60;99.90
1405;DHT22;697;51.114;6.542;2024-02-21T07:23:33;10.60;99.90
1405;DHT22;697;51.114;6.542;2024-02-21T07:26:00;10.60;99.90
1405;DHT22;697;51.114;6.542;2024-02-21T07:28:26;10.50;99.90
1405;DHT22;697;51.114;6.542;2024-02-21T07:30:54;10.40;99.90
1405;DHT22;697;51.114;6.542;2024-02-21T07:33:22;10.40;99.90
1405;DHT22;697;51.114;6.542;2024-02-21T07:35:49;10.40;99.90
1405;DHT22;697;51.114;6.542;2024-02-21T07:38:16;10.30;99.90
1405;DHT22;697;51.114;6.542;2024-02-21T07:40:44;10.20;99.90
1405;DHT22;697;51.114;6.542;2024-02-21T07:43:11;10.10;99.90
1405;DHT22;697;51.114;6.542;2024-02-21T07:45:38;10.10;99.90
1405;DHT22;697;51.114;6.542;2024-02-21T07:48:05;10.10;99.90
1405;DHT22;697;51.114;6.542;2024-02-21T07:50:33;10.10;99.90
1405;DHT22;697;51.114;6.542;2024-02-21T07:53:00;10.10;99.90
1405;DHT22;697;51.114;6.542;2024-02-21T07:55:27;10.10;99.90
1405;DHT22;697;51.114;6.542;2024-02-21T07:57:54;10.10;99.90
1405;DHT22;697;51.114;6.542;2024-02-21T08:00:21;10.10;99.90
1405;DHT22;697;51.114;6.542;2024-02-21T08:02:49;10.10;99.90
1405;DHT22;697;51.114;6.542;2024-02-21T08:05:16;10.10;99.90
1405;DHT22;697;51.114;6.542;2024-02-21T08:07:44;10.10;99.90
1405;DHT22;697;51.114;6.542;2024-02-21T08:10:10;10.10;99.90
1405;DHT22;697;51.114;6.542;2024-02-21T08:12:38;10.20;99.90
1405;DHT22;697;51.114;6.542;2024-02-21T08:15:05;10.20;99.90
1405;DHT22;697;51.114;6.542;2024-02-21T08:17:33;10.30;99.90
1405;DHT22;697;51.114;6.542;2024-02-21T08:20:00;10.30;99.90
1405;DHT22;697;51.114;6.542;2024-02-21T08:22:27;10.40;99.90
1405;DHT22;697;51.114;6.542;2024-02-21T08:24:55;10.40;99.90
1405;DHT22;697;51.114;6.542;2024-02-21T08:27:22;10.50;99.90
1405;DHT22;697;51.114;6.542;2024-02-21T08:29:49;10.50;99.90
1405;DHT22;697;51.114;6.542;2024-02-21T08:32:16;10.50;99.90
1405;DHT22;697;51.114;6.542;2024-02-21T08:34:42;10.60;99.90
1405;DHT22;697;51.114;6.542;2024-02-21T08:37:09;10.60;99.90
1405;DHT22;697;51.114;6.542;2024-02-21T08:39:37;10.60;99.90
1405;DHT22;697;51.114;6.542;2024-02-21T08:42:05;10.60;99.90
1405;DHT22;697;51.114;6.542;2024-02-21T08:44:32;10.70;99.90
1405;DHT22;697;51.114;6.542;2024-02-21T08:46:59;10.60;99.90
1405;DHT22;697;51.114;6.542;2024-02-21T08:49:29;10.70;99.90
1405;DHT22;697;51.114;6.542;2024-02-21T08:51:56;10.70;99.90
1405;DHT22;697;51.114;6.542;2024-02-21T08:54:23;10.80;99.90
1405;DHT22;697;51.114;6.542;2024-02-21T08:56:50;10.90;99.90
1405;DHT22;697;51.114;6.542;2024-02-21T08:59:18;11.00;99.90
1405;DHT22;697;51.114;6.542;2024-02-21T09:01:46;11.00;99.90
1405;DHT22;697;51.114;6.542;2024-02-21T09:04:12;11.10;99.90
1405;DHT22;697;51.114;6.542;2024-02-21T09:06:39;11.20;99.90
1405;DHT22;697;51.114;6.542;2024-02-21T09:09:08;11.30;99.90
1405;DHT22;697;51.114;6.542;2024-02-21T09:11:35;11.20;99.90
1405;DHT22;697;51.114;6.542;2024-02-21T09:14:02;11.30;99.90
1405;DHT22;697;51.114;6.542;2024-02-21T09:16:31;11.30;99.90
1405;DHT22;697;51.114;6.542;2024-02-21T09:18:58;11.30;99.90
1405;DHT22;697;51.114;6.542;2024-02-21T09:21:26;11.30;99.90
1405;DHT22;697;51.114;6.542;2024-02-21T09:23:53;11.30;99.90
1405;DHT22;697;51.114;6.542;2024-02-21T09:26:20;11.30;99.90
1405;DHT22;697;51.114;6.542;2024-02-21T09:28:47;11.30;99.90
1405;DHT22;697;51.114;6.542;2024-02-21T09:31:14;11.40;99.90
1405;DHT22;697;51.114;6.542;2024-02-21T09:33:42;11.30;99.90
1405;DHT22;697;51.114;6.542;2024-02-21T09:36:08;11.40;99.90
1405;DHT22;697;51.114;6.542;2024-02-21T09:38:35;11.40;99.90
1405;DHT22;697;51.114;6.542;2024-02-21T09:41:11;11.40;99.90
1405;DHT22;697;51.114;6.542;2024-02-21T09:43:40;11.50;99.90
1405;DHT22;697;51.114;6.542;2024-02-21T09:46:09;11.60;99.70
1405;DHT22;697;51.114;6.542;2024-02-21T09:48:53;11.70;99.60
1405;DHT22;697;51.114;6.542;2024-02-21T09:51:25;11.80;99.60
1405;DHT22;697;51.114;6.542;2024-02-21T09:53:54;11.90;99.40
1405;DHT22;697;51.114;6.542;2024-02-21T09:56:21;12.00;99.10
1405;DHT22;697;51.114;6.542;2024-02-21T09:58:48;12.10;98.50
1405;DHT22;697;51.114;6.542;2024-02-21T10:01:15;12.10;98.50
1405;DHT22;697;51.114;6.542;2024-02-21T10:03:43;12.10;98.20
1405;DHT22;697;51.114;6.542;2024-02-21T10:06:10;12.10;98.20
1405;DHT22;697;51.114;6.542;2024-02-21T10:08:37;12.10;97.70
1405;DHT22;697;51.114;6.542;2024-02-21T10:11:03;12.10;97.80
1405;DHT22;697;51.114;6.542;2024-02-21T10:13:30;12.10;97.90
1405;DHT22;697;51.114;6.542;2024-02-21T10:16:02;12.20;97.80
1405;DHT22;697;51.114;6.542;2024-02-21T10:18:29;12.20;97.70
1405;DHT22;697;51.114;6.542;2024-02-21T10:21:07;12.30;97.60
1405;DHT22;697;51.114;6.542;2024-02-21T10:23:44;12.40;97.90
1405;DHT22;697;51.114;6.542;2024-02-21T10:26:11;12.40;97.90
1405;DHT22;697;51.114;6.542;2024-02-21T10:28:38;12.50;97.90
1405;DHT22;697;51.114;6.542;2024-02-21T10:31:08;12.70;97.60
1405;DHT22;697;51.114;6.542;2024-02-21T10:33:35;12.80;97.40
1405;DHT22;697;51.114;6.542;2024-02-21T10:36:13;12.80;97.50
1405;DHT22;697;51.114;6.542;2024-02-21T10:38:40;12.80;97.00
1405;DHT22;697;51.114;6.542;2024-02-21T10:41:07;12.80;96.60
1405;DHT22;697;51.114;6.542;2024-02-21T10:43:38;12.80;96.60
1405;DHT22;697;51.114;6.542;2024-02-21T10:46:07;12.80;96.40
1405;DHT22;697;51.114;6.542;2024-02-21T10:48:43;12.80;96.50
1405;DHT22;697;51.114;6.542;2024-02-21T10:51:18;12.90;96.60
1405;DHT22;697;51.114;6.542;2024-02-21T10:53:50;13.00;96.40
1405;DHT22;697;51.114;6.542;2024-02-21T10:56:27;13.10;96.00
1405;DHT22;697;51.114;6.542;2024-02-21T10:58:55;13.20;95.80
1405;DHT22;697;51.114;6.542;2024-02-21T11:01:24;13.30;95.30
1405;DHT22;697;51.114;6.542;2024-02-21T11:03:54;13.40;95.10
1405;DHT22;697;51.114;6.542;2024-02-21T11:06:23;13.50;95.30
1405;DHT22;697;51.114;6.542;2024-02-21T11:09:00;13.60;94.30
1405;DHT22;697;51.114;6.542;2024-02-21T11:11:28;13.60;94.10
1405;DHT22;697;51.114;6.542;2024-02-21T11:14:04;13.70;93.90
1405;DHT22;697;51.114;6.542;2024-02-21T11:16:35;13.70;93.70
1405;DHT22;697;51.114;6.542;2024-02-21T11:19:07;13.80;93.80
1405;DHT22;697;51.114;6.542;2024-02-21T11:21:37;13.80;93.70
1405;DHT22;697;51.114;6.542;2024-02-21T11:24:04;13.80;93.50
1405;DHT22;697;51.114;6.542;2024-02-21T11:26:32;13.80;93.40
1405;DHT22;697;51.114;6.542;2024-02-21T11:28:59;13.80;93.20
1405;DHT22;697;51.114;6.542;2024-02-21T11:31:27;13.70;92.60
1405;DHT22;697;51.114;6.542;2024-02-21T11:33:54;13.70;92.90
1405;DHT22;697;51.114;6.542;2024-02-21T11:36:27;13.70;92.80
1405;DHT22;697;51.114;6.542;2024-02-21T11:39:03;13.60;92.70
1405;DHT22;697;51.114;6.542;2024-02-21T11:41:31;13.60;92.80
1405;DHT22;697;51.114;6.542;2024-02-21T11:43:57;13.60;92.70
1405;DHT22;697;51.114;6.542;2024-02-21T11:46:24;13.60;92.60
1405;DHT22;697;51.114;6.542;2024-02-21T11:48:51;13.60;92.50
1405;DHT22;697;51.114;6.542;2024-02-21T11:51:25;13.70;93.00
1405;DHT22;697;51.114;6.542;2024-02-21T11:53:52;13.60;92.60
1405;DHT22;697;51.114;6.542;2024-02-21T11:56:20;13.60;92.20
1405;DHT22;697;51.114;6.542;2024-02-21T11:58:48;13.70;92.70
1405;DHT22;697;51.114;6.542;2024-02-21T12:01:15;13.70;92.20
1405;DHT22;697;51.114;6.542;2024-02-21T12:03:42;13.70;91.90
1405;DHT22;697;51.114;6.542;2024-02-21T12:06:16;13.80;91.50
1405;DHT22;697;51.114;6.542;2024-02-21T12:08:45;13.80;91.90
1405;DHT22;697;51.114;6.542;2024-02-21T12:11:22;13.80;91.40
1405;DHT22;697;51.114;6.542;2024-02-21T12:13:59;13.80;91.70
1405;DHT22;697;51.114;6.542;2024-02-21T12:16:27;13.90;91.50
1405;DHT22;697;51.114;6.542;2024-02-21T12:18:55;13.80;91.60
1405;DHT22;697;51.114;6.542;2024-02-21T12:21:24;13.90;91.50
1405;DHT22;697;51.114;6.542;2024-02-21T12:23:53;14.00;91.70
1405;DHT22;697;51.114;6.542;2024-02-21T12:26:21;14.20;91.20
1405;DHT22;697;51.114;6.542;2024-02-21T12:28:48;14.30;90.70
1405;DHT22;697;51.114;6.542;2024-02-21T12:31:15;14.40;90.20
1405;DHT22;697;51.114;6.542;2024-02-21T12:33:42;14.60;90.30
1405;DHT22;697;51.114;6.542;2024-02-21T12:36:09;14.90;89.70
1405;DHT22;697;51.114;6.542;2024-02-21T12:38:36;15.20;88.30
1405;DHT22;697;51.114;6.542;2024-02-21T12:41:03;15.40;86.50
1405;DHT22;697;51.114;6.542;2024-02-21T12:43:31;15.60;84.80
1405;DHT22;697;51.114;6.542;2024-02-21T12:45:59;15.70;84.40
1405;DHT22;697;51.114;6.542;2024-02-21T12:48:26;15.80;83.70
1405;DHT22;697;51.114;6.542;2024-02-21T12:50:54;15.90;82.70
1405;DHT22;697;51.114;6.542;2024-02-21T12:53:21;16.10;83.00
1405;DHT22;697;51.114;6.542;2024-02-21T12:55:48;16.30;81.60
1405;DHT22;697;51.114;6.542;2024-02-21T12:58:15;16.60;80.30
1405;DHT22;697;51.114;6.542;2024-02-21T13:00:43;16.90;79.10
1405;DHT22;697;51.114;6.542;2024-02-21T13:03:11;17.20;76.40
1405;DHT22;697;51.114;6.542;2024-02-21T13:05:37;17.50;75.00
1405;DHT22;697;51.114;6.542;2024-02-21T13:08:05;17.60;74.20
1405;DHT22;697;51.114;6.542;2024-02-21T13:10:32;17.70;72.00
1405;DHT22;697;51.114;6.542;2024-02-21T13:13:00;17.80;72.50
1405;DHT22;697;51.114;6.542;2024-02-21T13:15:27;17.90;71.30
1405;DHT22;697;51.114;6.542;2024-02-21T13:17:55;18.00;70.90
1405;DHT22;697;51.114;6.542;2024-02-21T13:20:22;18.10;69.30
1405;DHT22;697;51.114;6.542;2024-02-21T13:22:49;18.20;69.40
1405;DHT22;697;51.114;6.542;2024-02-21T13:25:16;18.30;67.70
1405;DHT22;697;51.114;6.542;2024-02-21T13:27:45;18.30;68.70
1405;DHT22;697;51.114;6.542;2024-02-21T13:30:13;18.20;69.00
1405;DHT22;697;51.114;6.542;2024-02-21T13:32:41;18.10;68.50
1405;DHT22;697;51.114;6.542;2024-02-21T13:35:09;17.90;68.40
1405;DHT22;697;51.114;6.542;2024-02-21T13:37:37;17.70;68.40
1405;DHT22;697;51.114;6.542;2024-02-21T13:40:05;17.40;68.70
1405;DHT22;697;51.114;6.542;2024-02-21T13:42:34;17.10;70.80
1405;DHT22;697;51.114;6.542;2024-02-21T13:45:01;16.80;71.50
1405;DHT22;697;51.114;6.542;2024-02-21T13:47:28;16.40;72.70
1405;DHT22;697;51.114;6.542;2024-02-21T13:49:55;16.20;73.90
1405;DHT22;697;51.114;6.542;2024-02-21T13:52:23;15.90;75.30
1405;DHT22;697;51.114;6.542;2024-02-21T13:54:51;15.60;76.20
1405;DHT22;697;51.114;6.542;2024-02-21T13:57:18;15.60;77.70
1405;DHT22;697;51.114;6.542;2024-02-21T13:59:45;15.50;78.40
1405;DHT22;697;51.114;6.542;2024-02-21T14:02:12;15.50;79.00
1405;DHT22;697;51.114;6.542;2024-02-21T14:04:39;15.50;79.80
1405;DHT22;697;51.114;6.542;2024-02-21T14:07:06;15.50;79.00
1405;DHT22;697;51.114;6.542;2024-02-21T14:09:34;15.40;78.90
1405;DHT22;697;51.114;6.542;2024-02-21T14:12:02;15.40;79.70
1405;DHT22;697;51.114;6.542;2024-02-21T14:14:33;15.40;80.20
1405;DHT22;697;51.114;6.542;2024-02-21T14:17:00;15.40;79.90
1405;DHT22;697;51.114;6.542;2024-02-21T14:19:27;15.40;80.60
1405;DHT22;697;51.114;6.542;2024-02-21T14:21:54;15.50;81.10
1405;DHT22;697;51.114;6.542;2024-02-21T14:24:21;15.50;80.80
1405;DHT22;697;51.114;6.542;2024-02-21T14:26:49;15.60;81.70
1405;DHT22;697;51.114;6.542;2024-02-21T14:29:15;15.50;81.40
1405;DHT22;697;51.114;6.542;2024-02-21T14:31:43;15.60;81.30
1405;DHT22;697;51.114;6.542;2024-02-21T14:34:10;15.60;81.40
1405;DHT22;697;51.114;6.542;2024-02-21T14:36:37;15.60;81.60
1405;DHT22;697;51.114;6.542;2024-02-21T14:39:04;15.50;78.90
1405;DHT22;697;51.114;6.542;2024-02-21T14:41:31;15.50;78.90
1405;DHT22;697;51.114;6.542;2024-02-21T14:43:59;15.40;78.50
1405;DHT22;697;51.114;6.542;2024-02-21T14:46:27;15.40;76.40
1405;DHT22;697;51.114;6.542;2024-02-21T14:48:54;15.30;75.90
1405;DHT22;697;51.114;6.542;2024-02-21T14:51:21;15.20;75.70
1405;DHT22;697;51.114;6.542;2024-02-21T14:53:48;15.10;75.20
1405;DHT22;697;51.114;6.542;2024-02-21T14:56:15;15.00;76.30
1405;DHT22;697;51.114;6.542;2024-02-21T14:58:43;15.00;79.00
1405;DHT22;697;51.114;6.542;2024-02-21T15:01:11;14.90;79.80
1405;DHT22;697;51.114;6.542;2024-02-21T15:03:39;14.90;80.80
1405;DHT22;697;51.114;6.542;2024-02-21T15:06:05;14.80;81.60
1405;DHT22;697;51.114;6.542;2024-02-21T15:08:32;14.80;82.90
1405;DHT22;697;51.114;6.542;2024-02-21T15:10:59;14.70;84.30
1405;DHT22;697;51.114;6.542;2024-02-21T15:13:26;14.60;83.90
1405;DHT22;697;51.114;6.542;2024-02-21T15:15:53;14.60;82.50
1405;DHT22;697;51.114;6.542;2024-02-21T15:18:21;14.50;82.60
1405;DHT22;697;51.114;6.542;2024-02-21T15:20:48;14.50;80.40
1405;DHT22;697;51.114;6.542;2024-02-21T15:23:14;14.40;80.40
1405;DHT22;697;51.114;6.542;2024-02-21T15:25:43;14.30;77.90
1405;DHT22;697;51.114;6.542;2024-02-21T15:28:10;14.30;78.40
1405;DHT22;697;51.114;6.542;2024-02-21T15:30:38;14.20;78.70
1405;DHT22;697;51.114;6.542;2024-02-21T15:33:05;14.10;77.60
1405;DHT22;697;51.114;6.542;2024-02-21T15:35:33;14.10;76.40
1405;DHT22;697;51.114;6.542;2024-02-21T15:38:00;14.00;76.90
1405;DHT22;697;51.114;6.542;2024-02-21T15:40:26;14.00;77.80
1405;DHT22;697;51.114;6.542;2024-02-21T15:42:53;13.90;77.80
1405;DHT22;697;51.114;6.542;2024-02-21T15:45:20;13.90;77.30
1405;DHT22;697;51.114;6.542;2024-02-21T15:47:47;13.80;77.50
1405;DHT22;697;51.114;6.542;2024-02-21T15:50:14;13.70;77.70
1405;DHT22;697;51.114;6.542;2024-02-21T15:52:42;13.60;76.50
1405;DHT22;697;51.114;6.542;2024-02-21T15:55:09;13.60;76.30
1405;DHT22;697;51.114;6.542;2024-02-21T15:57:37;13.60;76.50
1405;DHT22;697;51.114;6.542;2024-02-21T16:00:05;13.50;76.90
1405;DHT22;697;51.114;6.542;2024-02-21T16:02:37;13.40;77.00
1405;DHT22;697;51.114;6.542;2024-02-21T16:05:06;13.40;76.70
1405;DHT22;697;51.114;6.542;2024-02-21T16:07:34;13.40;77.00
1405;DHT22;697;51.114;6.542;2024-02-21T16:10:02;13.40;77.20
1405;DHT22;697;51.114;6.542;2024-02-21T16:12:29;13.30;77.20
1405;DHT22;697;51.114;6.542;2024-02-21T16:14:56;13.30;77.90
1405;DHT22;697;51.114;6.542;2024-02-21T16:17:23;13.30;79.20
1405;DHT22;697;51.114;6.542;2024-02-21T16:19:50;13.20;79.80